Terminal Aerodrome Forecast
Issued by NWS Shreveport, LA

Home | Current Version | Previous Version | Text Only | Print | Product List | Glossary On
Versions: 1 2 3 4 5 6 7 8 9 10 11 12 13 14 15 16 17 18 19
000
FTUS44 KSHV 242324
TAFGGG
TAF
KGGG 242324Z 2500/2524 13004KT P6SM SCT060
      TEMPO 2511/2514 5SM BR
     FM251400 15005KT P6SM SKC
     FM251600 14006KT P6SM SCT035 SCT045
     FM252100 13007KT P6SM SCT050=

USA.gov is the U.S. government's official web portal to all federal, state and local government web resources and services.